createdAt,value
2018-08-06T00:19:31.389Z,1.37
2018-08-06T00:21:59.523Z,1.20
2018-08-06T00:24:27.769Z,1.00
2018-08-06T00:26:55.879Z,1.20
2018-08-06T00:29:24.049Z,1.20
2018-08-06T00:31:52.326Z,1.03
2018-08-06T00:34:20.450Z,1.47
2018-08-06T00:36:48.493Z,1.23
2018-08-06T00:39:16.570Z,1.03
2018-08-06T00:41:44.675Z,0.87
2018-08-06T00:44:12.753Z,0.90
2018-08-06T00:46:40.851Z,1.10
2018-08-06T00:49:08.951Z,1.50
2018-08-06T00:51:37.069Z,1.30
2018-08-06T00:54:05.310Z,1.20
2018-08-06T00:56:33.411Z,1.10
2018-08-06T00:59:01.521Z,1.50
2018-08-06T01:01:29.616Z,1.53
2018-08-06T01:03:57.705Z,1.87
2018-08-06T01:06:25.799Z,1.50
2018-08-06T01:08:53.922Z,1.03
2018-08-06T01:11:22.006Z,1.33
2018-08-06T01:13:50.561Z,1.50
2018-08-06T01:16:18.658Z,0.97
2018-08-06T01:18:46.746Z,1.20
2018-08-06T01:21:14.889Z,1.17
2018-08-06T01:23:42.967Z,1.27
2018-08-06T01:26:11.066Z,1.40
2018-08-06T01:28:39.187Z,1.00
2018-08-06T01:31:07.281Z,1.53
2018-08-06T01:33:35.385Z,1.20
2018-08-06T01:36:03.466Z,1.13
2018-08-06T01:38:31.562Z,1.20
2018-08-06T01:40:59.670Z,1.10
2018-08-06T01:43:27.766Z,1.13
2018-08-06T01:45:55.853Z,1.40
2018-08-06T01:48:23.946Z,1.20
2018-08-06T01:50:52.097Z,0.97
2018-08-06T01:53:20.281Z,1.00
2018-08-06T01:55:48.372Z,1.20
2018-08-06T01:58:16.525Z,1.30
2018-08-06T02:00:44.668Z,1.40
2018-08-06T02:03:12.750Z,1.20
2018-08-06T02:05:40.852Z,1.30
2018-08-06T02:14:55.615Z,1.20
2018-08-06T02:17:23.701Z,1.20
2018-08-06T02:19:52.375Z,1.00
2018-08-06T02:22:20.544Z,1.20
2018-08-06T02:24:48.648Z,1.07
2018-08-06T02:27:16.743Z,1.30
2018-08-06T02:31:14.124Z,1.30
2018-08-06T02:33:42.222Z,1.20
2018-08-06T02:36:10.297Z,1.13
2018-08-06T02:38:38.442Z,1.10
2018-08-06T02:41:06.554Z,1.10
2018-08-06T02:43:34.617Z,1.10
2018-08-06T02:46:02.687Z,1.20
2018-08-06T02:48:30.823Z,0.90
2018-08-06T02:50:58.931Z,1.10
2018-08-06T02:53:27.034Z,1.20
2018-08-06T02:55:55.175Z,1.07
2018-08-06T02:58:23.254Z,1.30
2018-08-06T03:00:51.342Z,0.90
2018-08-06T03:03:19.490Z,1.30
2018-08-06T03:05:47.607Z,1.13
2018-08-06T03:08:15.737Z,1.30
2018-08-06T03:10:43.839Z,1.73
2018-08-06T03:13:11.940Z,1.27
2018-08-06T03:15:40.017Z,1.20
2018-08-06T03:18:08.091Z,1.33
2018-08-06T03:20:36.277Z,1.30
2018-08-06T03:23:04.359Z,1.10
2018-08-06T03:25:32.459Z,1.10
2018-08-06T03:28:00.539Z,1.37
2018-08-06T03:30:28.610Z,1.80
2018-08-06T03:32:56.726Z,1.30
2018-08-06T03:35:24.814Z,1.17
2018-08-06T03:37:52.873Z,1.30
2018-08-06T03:40:21.043Z,1.40
2018-08-06T03:42:49.118Z,1.57
2018-08-06T03:45:17.227Z,2.70
2018-08-06T03:47:45.316Z,1.40
2018-08-06T03:50:13.974Z,1.20
2018-08-06T03:52:42.240Z,1.40
2018-08-06T03:55:10.958Z,0.93
2018-08-06T03:57:39.461Z,1.10
2018-08-06T04:00:09.241Z,1.30
2018-08-06T04:02:37.434Z,1.53
2018-08-06T04:05:06.344Z,1.60
2018-08-06T04:07:34.427Z,1.50
2018-08-06T04:10:02.510Z,1.27
2018-08-06T04:12:30.614Z,1.37
2018-08-06T04:14:58.707Z,1.40
2018-08-06T04:17:26.787Z,2.80
2018-08-06T04:19:54.853Z,1.43
2018-08-06T04:22:22.973Z,2.10
2018-08-06T04:24:51.054Z,1.67
2018-08-06T04:27:19.137Z,1.20
2018-08-06T04:29:47.278Z,1.23
2018-08-06T04:32:15.373Z,1.30
2018-08-06T04:34:43.494Z,2.60
2018-08-06T04:37:11.629Z,1.37
2018-08-06T04:39:39.807Z,1.40
2018-08-06T04:42:07.931Z,1.30
2018-08-06T04:44:36.012Z,1.67
2018-08-06T04:47:04.162Z,1.50
2018-08-06T04:49:32.258Z,1.40
2018-08-06T04:52:00.395Z,1.33
2018-08-06T04:54:28.486Z,1.20
2018-08-06T04:56:56.590Z,1.57
2018-08-06T04:59:24.663Z,1.50
2018-08-06T05:01:52.842Z,1.47
2018-08-06T05:04:20.938Z,1.33
2018-08-06T05:06:49.043Z,1.33
2018-08-06T05:09:20.079Z,3.10
2018-08-06T05:11:48.467Z,1.40
2018-08-06T05:14:16.533Z,1.30
2018-08-06T05:16:44.614Z,1.63
2018-08-06T05:19:12.738Z,2.17
2018-08-06T05:21:40.851Z,2.10
2018-08-06T05:24:08.968Z,1.80
2018-08-06T05:26:37.033Z,1.77
2018-08-06T05:29:05.133Z,2.50
2018-08-06T05:31:33.293Z,2.33
2018-08-06T05:34:01.455Z,3.03
2018-08-06T05:36:29.597Z,2.60
2018-08-06T05:38:57.783Z,1.47
2018-08-06T05:41:26.699Z,2.67
2018-08-06T05:43:55.850Z,3.10
2018-08-06T05:46:24.138Z,2.17
2018-08-06T05:48:52.488Z,1.80
2018-08-06T05:51:20.869Z,1.20
2018-08-06T05:53:49.215Z,1.40
2018-08-06T05:56:17.507Z,1.03
2018-08-06T05:58:45.847Z,1.27
2018-08-06T06:01:14.139Z,1.67
2018-08-06T06:03:42.475Z,1.20
2018-08-06T06:06:10.759Z,1.20
2018-08-06T06:08:39.911Z,1.10
2018-08-06T06:11:08.961Z,0.80
2018-08-06T06:13:37.346Z,1.00
2018-08-06T06:16:07.156Z,1.23
2018-08-06T06:18:35.574Z,1.20
2018-08-06T06:21:03.930Z,1.00
2018-08-06T06:23:32.302Z,1.30
2018-08-06T06:26:00.804Z,1.43
2018-08-06T06:28:29.147Z,1.10
2018-08-06T06:30:57.438Z,0.80
2018-08-06T06:33:25.876Z,1.00
2018-08-06T06:35:54.628Z,1.03
2018-08-06T06:38:22.927Z,1.20
2018-08-06T06:40:51.200Z,1.10
2018-08-06T06:43:19.600Z,1.00
2018-08-06T06:45:47.959Z,1.00
2018-08-06T06:48:16.258Z,1.00
2018-08-06T06:50:44.571Z,1.10
2018-08-06T06:53:12.879Z,1.10
2018-08-06T06:55:41.198Z,1.13
2018-08-06T06:58:09.494Z,1.10
2018-08-06T07:00:37.942Z,1.10
2018-08-06T07:03:06.555Z,0.83
2018-08-06T07:05:34.851Z,1.00
2018-08-06T07:08:03.200Z,1.10
2018-08-06T07:10:31.474Z,1.27
2018-08-06T07:12:59.782Z,0.87
2018-08-06T07:15:28.073Z,1.00
2018-08-06T07:17:56.412Z,0.80
2018-08-06T07:20:24.875Z,0.87
2018-08-06T07:22:53.230Z,1.30
2018-08-06T07:25:21.529Z,1.00
2018-08-06T07:27:49.870Z,0.90
2018-08-06T07:30:18.218Z,1.10
2018-08-06T07:32:46.602Z,0.90
2018-08-06T07:35:15.235Z,0.90
2018-08-06T07:37:43.525Z,1.20
2018-08-06T07:40:13.024Z,1.00
2018-08-06T07:42:41.323Z,0.90
2018-08-06T07:45:19.127Z,1.30
2018-08-06T07:47:48.151Z,0.83
2018-08-06T07:50:17.023Z,1.20
2018-08-06T07:52:45.071Z,1.00
2018-08-06T07:55:13.385Z,1.10
2018-08-06T07:57:41.458Z,1.10
2018-08-06T08:00:10.856Z,1.20
2018-08-06T08:02:38.926Z,0.93
2018-08-06T08:05:08.006Z,0.90
2018-08-06T08:07:36.011Z,1.10
2018-08-06T08:10:06.487Z,1.00
2018-08-06T08:12:34.839Z,1.00
2018-08-06T08:15:03.343Z,0.90
2018-08-06T08:17:31.909Z,1.20
2018-08-06T08:20:00.338Z,1.00
2018-08-06T08:22:28.751Z,0.90
2018-08-06T08:24:57.118Z,1.00
2018-08-06T08:27:25.480Z,1.10
2018-08-06T08:29:53.854Z,1.10
2018-08-06T08:32:22.302Z,1.03
2018-08-06T08:34:50.626Z,1.13
2018-08-06T08:37:19.178Z,0.90
2018-08-06T08:39:47.729Z,0.80
2018-08-06T08:42:16.130Z,1.00
2018-08-06T08:44:44.550Z,1.17
2018-08-06T08:47:13.225Z,1.00
2018-08-06T08:49:41.603Z,0.90
2018-08-06T08:52:10.088Z,1.00
2018-08-06T08:54:38.484Z,1.20
2018-08-06T08:57:06.908Z,1.17
2018-08-06T08:59:35.317Z,1.00
2018-08-06T09:02:03.632Z,0.87
2018-08-06T09:04:32.123Z,1.20
2018-08-06T09:07:00.502Z,1.20
2018-08-06T09:09:28.992Z,1.10
2018-08-06T09:11:57.388Z,1.10
2018-08-06T09:14:26.528Z,1.00
2018-08-06T09:16:54.882Z,1.27
2018-08-06T09:19:23.318Z,1.20
2018-08-06T09:21:51.695Z,1.00
2018-08-06T09:24:20.135Z,1.03
2018-08-06T09:26:48.216Z,1.00
2018-08-06T09:29:16.538Z,1.20
2018-08-06T09:31:44.846Z,1.17
2018-08-06T09:34:13.194Z,1.00
2018-08-06T09:36:41.558Z,1.13
2018-08-06T09:39:11.734Z,0.93
2018-08-06T09:41:40.047Z,1.10
2018-08-06T09:44:08.702Z,0.90
2018-08-06T09:46:37.408Z,0.87
2018-08-06T09:49:06.761Z,0.90
2018-08-06T09:51:35.114Z,1.10
2018-08-06T09:54:03.427Z,1.13
2018-08-06T09:56:31.780Z,1.00
2018-08-06T09:59:00.107Z,1.27
2018-08-06T10:01:33.612Z,1.10
2018-08-06T10:04:01.937Z,1.23
2018-08-06T10:06:30.470Z,0.90
2018-08-06T10:08:58.594Z,1.13
2018-08-06T10:11:27.013Z,1.17
2018-08-06T10:13:55.453Z,1.00
2018-08-06T10:16:23.842Z,0.97
2018-08-06T10:18:52.306Z,1.20
2018-08-06T10:21:20.667Z,1.13
2018-08-06T10:23:48.959Z,1.00
2018-08-06T10:26:17.309Z,1.10
2018-08-06T10:28:45.632Z,1.10
2018-08-06T10:31:13.976Z,1.30
2018-08-06T10:33:42.313Z,1.07
2018-08-06T10:36:10.635Z,1.00
2018-08-06T10:38:38.970Z,1.00
2018-08-06T10:41:07.374Z,1.20
2018-08-06T10:43:35.699Z,1.47
2018-08-06T10:46:04.077Z,1.00
2018-08-06T10:48:32.519Z,1.33
2018-08-06T10:51:00.793Z,1.23
2018-08-06T10:53:29.177Z,1.13
2018-08-06T10:55:57.576Z,1.17
2018-08-06T10:58:25.827Z,0.97
2018-08-06T11:00:54.222Z,1.40
2018-08-06T11:03:22.529Z,1.13
2018-08-06T11:05:50.858Z,1.00
2018-08-06T11:08:19.185Z,1.00
2018-08-06T11:10:47.574Z,1.30
2018-08-06T11:13:15.887Z,1.00
2018-08-06T11:15:44.352Z,1.10
2018-08-06T11:18:12.712Z,1.10
2018-08-06T11:20:41.068Z,1.00
2018-08-06T11:23:09.382Z,1.27
2018-08-06T11:25:37.682Z,1.60
2018-08-06T11:28:06.407Z,1.40
2018-08-06T11:30:34.748Z,1.40
2018-08-06T11:33:03.039Z,1.50
2018-08-06T11:35:31.394Z,1.30
2018-08-06T11:37:59.701Z,1.50
2018-08-06T11:40:28.114Z,1.30
2018-08-06T11:42:56.438Z,1.33
2018-08-06T11:45:24.801Z,1.20
2018-08-06T11:47:53.143Z,1.10
2018-08-06T11:50:21.559Z,1.50
2018-08-06T11:52:49.866Z,1.50
2018-08-06T11:55:18.253Z,1.20
2018-08-06T11:57:46.572Z,1.50
2018-08-06T12:00:18.329Z,1.30
2018-08-06T12:02:46.830Z,1.53
2018-08-06T12:05:15.251Z,1.33
2018-08-06T12:07:43.559Z,1.10
2018-08-06T12:10:13.702Z,1.20
2018-08-06T12:12:43.592Z,1.60
2018-08-06T12:15:12.023Z,1.63
2018-08-06T12:17:41.584Z,1.17
2018-08-06T12:20:13.707Z,1.50
2018-08-06T12:22:43.564Z,1.50
2018-08-06T12:25:12.791Z,1.50
2018-08-06T12:27:41.321Z,1.50
2018-08-06T12:30:13.411Z,1.23
2018-08-06T12:32:42.474Z,1.30
2018-08-06T12:35:10.826Z,1.30
2018-08-06T12:37:39.231Z,1.40
2018-08-06T12:40:10.451Z,1.20
2018-08-06T12:42:38.924Z,1.60
2018-08-06T12:45:08.316Z,1.47
2018-08-06T12:47:37.054Z,1.33
2018-08-06T12:50:06.218Z,1.60
2018-08-06T12:52:34.543Z,1.30
2018-08-06T12:55:03.031Z,1.40
2018-08-06T12:57:31.336Z,1.40
2018-08-06T12:59:59.638Z,1.50
2018-08-06T13:02:27.960Z,1.20
2018-08-06T13:04:56.306Z,1.60
2018-08-06T13:07:24.607Z,1.47
2018-08-06T13:09:54.303Z,1.60
2018-08-06T13:12:22.607Z,1.50
2018-08-06T13:14:50.922Z,1.53
2018-08-06T13:17:19.288Z,1.60
2018-08-06T13:19:47.600Z,1.30
2018-08-06T13:22:15.942Z,1.40
2018-08-06T13:24:44.711Z,1.60
2018-08-06T13:27:15.134Z,1.60
2018-08-06T13:29:44.181Z,1.40
2018-08-06T13:32:13.555Z,1.40
2018-08-06T13:34:41.955Z,1.40
2018-08-06T13:37:10.275Z,1.33
2018-08-06T13:39:38.600Z,1.67
2018-08-06T13:42:06.933Z,1.50
2018-08-06T13:44:35.400Z,1.40
2018-08-06T13:47:03.870Z,1.47
2018-08-06T13:49:32.274Z,1.60
2018-08-06T13:52:00.659Z,1.50
2018-08-06T13:54:28.982Z,1.50
2018-08-06T13:56:57.411Z,1.53
2018-08-06T13:59:25.996Z,1.30
2018-08-06T14:01:54.166Z,1.43
2018-08-06T14:04:22.488Z,1.30
2018-08-06T14:06:50.872Z,1.40
2018-08-06T14:09:19.197Z,1.40
2018-08-06T14:11:47.524Z,1.30
2018-08-06T14:14:15.880Z,1.53
2018-08-06T14:16:44.319Z,1.40
2018-08-06T14:19:12.661Z,1.27
2018-08-06T14:21:40.730Z,1.60
2018-08-06T14:24:09.044Z,1.17
2018-08-06T14:26:37.429Z,1.40
2018-08-06T14:29:05.810Z,1.40
2018-08-06T14:31:34.153Z,1.20
2018-08-06T14:34:02.422Z,1.63
2018-08-06T14:36:31.418Z,1.33
2018-08-06T14:39:07.166Z,1.30
2018-08-06T14:41:35.516Z,1.50
2018-08-06T14:44:05.405Z,1.47
2018-08-06T14:46:34.007Z,1.10
2018-08-06T14:49:02.363Z,1.33
2018-08-06T14:51:30.666Z,1.50
2018-08-06T14:53:59.174Z,1.10
2018-08-06T14:56:27.501Z,1.77
2018-08-06T14:58:55.869Z,1.37
2018-08-06T15:01:24.281Z,1.47
2018-08-06T15:03:52.736Z,1.23
2018-08-06T15:06:21.538Z,1.47
2018-08-06T15:08:49.982Z,1.40
2018-08-06T15:11:18.482Z,1.17
2018-08-06T15:13:46.839Z,1.40
2018-08-06T15:16:15.217Z,1.20
2018-08-06T15:18:43.503Z,1.47
2018-08-06T15:21:11.851Z,1.40
2018-08-06T15:23:40.199Z,1.50
2018-08-06T15:26:08.563Z,1.40
2018-08-06T15:28:36.920Z,1.30
2018-08-06T15:31:05.375Z,1.57
2018-08-06T15:33:33.707Z,1.60
2018-08-06T15:36:02.078Z,1.70
2018-08-06T15:38:30.407Z,1.60
2018-08-06T15:40:58.698Z,1.57
2018-08-06T15:43:27.039Z,1.70
2018-08-06T15:45:55.351Z,1.77
2018-08-06T15:48:23.669Z,1.77
2018-08-06T15:50:51.998Z,1.10
2018-08-06T15:53:20.283Z,1.30
2018-08-06T15:55:48.659Z,1.60
2018-08-06T15:58:16.737Z,1.70
2018-08-06T16:00:44.915Z,1.70
2018-08-06T16:03:13.027Z,1.40
2018-08-06T16:05:41.143Z,1.60
2018-08-06T16:08:09.277Z,1.50
2018-08-06T16:10:37.398Z,1.30
2018-08-06T16:13:05.534Z,1.33
2018-08-06T16:15:33.658Z,1.40
2018-08-06T16:18:01.746Z,1.50
2018-08-06T16:20:29.846Z,1.73
2018-08-06T16:22:57.975Z,1.67
2018-08-06T16:25:26.165Z,1.20
2018-08-06T16:27:54.309Z,1.53
2018-08-06T16:30:23.790Z,1.57
2018-08-06T16:32:51.885Z,1.30
2018-08-06T16:35:21.197Z,1.40
2018-08-06T16:37:49.683Z,1.73
2018-08-06T16:40:17.812Z,1.40
2018-08-06T16:42:46.013Z,1.40
2018-08-06T16:45:14.847Z,1.30
2018-08-06T16:47:42.982Z,1.40
2018-08-06T16:50:13.010Z,1.43
2018-08-06T16:52:41.200Z,1.60
2018-08-06T16:55:09.415Z,1.80
2018-08-06T16:57:37.493Z,1.50
2018-08-06T17:00:08.313Z,1.77
2018-08-06T17:02:36.420Z,1.50
2018-08-06T17:05:06.082Z,1.50
2018-08-06T17:07:34.332Z,1.60
2018-08-06T17:10:02.433Z,1.60
2018-08-06T17:12:30.525Z,1.70
2018-08-06T17:14:58.640Z,2.07
2018-08-06T17:17:26.708Z,1.80
2018-08-06T17:19:54.801Z,1.80
2018-08-06T17:22:23.140Z,1.83
2018-08-06T17:24:51.306Z,1.37
2018-08-06T17:27:19.407Z,1.33
2018-08-06T17:29:47.571Z,1.20
2018-08-06T17:32:15.639Z,1.97
2018-08-06T17:34:43.707Z,1.70
2018-08-06T17:37:11.820Z,1.70
2018-08-06T17:39:39.869Z,1.60
2018-08-06T17:42:08.022Z,1.50
2018-08-06T17:44:36.163Z,1.57
2018-08-06T17:47:04.247Z,1.83
2018-08-06T17:49:32.738Z,2.13
2018-08-06T17:52:01.048Z,1.97
2018-08-06T17:54:29.363Z,2.07
2018-08-06T17:56:57.710Z,2.37
2018-08-06T17:59:26.108Z,2.20
2018-08-06T18:01:54.618Z,2.30
2018-08-06T18:04:23.406Z,2.40
2018-08-06T18:06:51.820Z,2.37
2018-08-06T18:09:20.145Z,2.57
2018-08-06T18:11:48.906Z,2.00
2018-08-06T18:14:17.440Z,2.40
2018-08-06T18:16:45.888Z,1.93
2018-08-06T18:19:14.498Z,2.63
2018-08-06T18:21:42.907Z,1.87
2018-08-06T18:24:10.964Z,2.10
2018-08-06T18:26:39.332Z,2.20
2018-08-06T18:29:07.758Z,2.10
2018-08-06T18:31:36.247Z,2.20
2018-08-06T18:34:04.572Z,2.00
2018-08-06T18:36:33.919Z,2.03
2018-08-06T18:39:02.717Z,1.90
2018-08-06T18:41:31.274Z,1.77
2018-08-06T18:43:59.813Z,1.90
2018-08-06T18:46:28.487Z,2.10
2018-08-06T18:48:56.978Z,1.63
2018-08-06T18:51:25.335Z,2.13
2018-08-06T18:53:53.752Z,1.90
2018-08-06T18:56:22.546Z,2.73
2018-08-06T18:58:50.875Z,2.40
2018-08-06T19:01:19.415Z,2.50
2018-08-06T19:03:47.798Z,5.50
2018-08-06T19:06:16.377Z,2.80
2018-08-06T19:08:44.773Z,2.23
2018-08-06T19:11:13.091Z,2.93
2018-08-06T19:13:46.952Z,3.00
2018-08-06T19:16:15.258Z,7.33
2018-08-06T19:18:49.247Z,4.27
2018-08-06T19:21:17.886Z,3.40
2018-08-06T19:23:46.283Z,5.47
2018-08-06T19:26:14.687Z,2.60
2018-08-06T19:28:43.516Z,2.83
2018-08-06T19:31:17.265Z,2.77
2018-08-06T19:33:45.655Z,2.50
2018-08-06T19:36:14.046Z,2.10
2018-08-06T19:38:42.386Z,2.20
2018-08-06T19:41:10.828Z,2.30
2018-08-06T19:43:39.761Z,2.27
2018-08-06T19:46:09.041Z,2.10
2018-08-06T19:48:37.767Z,2.20
2018-08-06T19:51:06.095Z,2.33
2018-08-06T19:53:34.479Z,2.10
2018-08-06T19:56:08.230Z,2.27
2018-08-06T19:58:38.612Z,2.30
2018-08-06T20:01:06.906Z,2.47
2018-08-06T20:03:35.374Z,2.07
2018-08-06T20:06:03.860Z,1.90
2018-08-06T20:08:32.207Z,2.30
2018-08-06T20:11:00.671Z,1.90
2018-08-06T20:13:29.136Z,1.80
2018-08-06T20:15:57.443Z,1.83
2018-08-06T20:18:25.815Z,2.20
2018-08-06T20:20:54.344Z,2.10
2018-08-06T20:23:22.690Z,2.67
2018-08-06T20:25:51.220Z,3.10
2018-08-06T20:28:19.704Z,3.27
2018-08-06T20:30:48.112Z,4.30
2018-08-06T20:33:16.449Z,3.40
2018-08-06T20:35:44.762Z,3.00
2018-08-06T20:38:12.828Z,3.47
2018-08-06T20:40:41.163Z,2.73
2018-08-06T20:43:09.482Z,2.23
2018-08-06T20:45:37.823Z,2.43
2018-08-06T20:48:06.292Z,2.17
2018-08-06T20:50:35.650Z,2.17
2018-08-06T20:53:03.683Z,2.20
2018-08-06T20:55:32.052Z,1.93
2018-08-06T20:58:00.327Z,2.10
2018-08-06T21:00:28.648Z,1.83
2018-08-06T21:02:57.112Z,1.63
2018-08-06T21:05:25.364Z,1.87
2018-08-06T21:07:53.647Z,2.07
2018-08-06T21:10:21.968Z,1.43
2018-08-06T21:12:50.089Z,1.67
2018-08-06T21:15:18.428Z,1.80
2018-08-06T21:17:46.707Z,1.90
2018-08-06T21:20:16.579Z,1.80
2018-08-06T21:22:46.253Z,1.97
2018-08-06T21:25:15.170Z,2.27
2018-08-06T21:27:44.860Z,1.73
2018-08-06T21:30:17.187Z,1.80
2018-08-06T21:32:50.067Z,1.97
2018-08-06T21:35:19.223Z,2.00
2018-08-06T21:37:49.772Z,2.33
2018-08-06T21:40:18.842Z,2.40
2018-08-06T21:42:47.298Z,2.40
2018-08-06T21:45:15.666Z,2.53
2018-08-06T21:47:44.326Z,2.30
2018-08-06T21:50:13.201Z,2.10
2018-08-06T21:52:41.530Z,2.30
2018-08-06T21:55:10.578Z,2.13
2018-08-06T21:57:39.161Z,2.60
2018-08-06T22:00:15.775Z,2.20
2018-08-06T22:02:44.100Z,1.87
2018-08-06T22:05:12.418Z,2.20
2018-08-06T22:07:40.911Z,1.73
2018-08-06T22:10:09.255Z,2.10
2018-08-06T22:12:37.554Z,1.90
2018-08-06T22:15:05.898Z,2.27
2018-08-06T22:17:34.203Z,2.20
2018-08-06T22:20:02.539Z,2.17
2018-08-06T22:22:30.855Z,2.00
2018-08-06T22:24:59.151Z,2.17
2018-08-06T22:27:27.461Z,1.60
2018-08-06T22:29:55.762Z,2.40
2018-08-06T22:32:23.781Z,1.60
2018-08-06T22:34:51.833Z,2.20
2018-08-06T22:37:19.891Z,1.80
2018-08-06T22:39:47.923Z,1.80
2018-08-06T22:42:15.945Z,2.20
2018-08-06T22:44:43.979Z,2.00
2018-08-06T22:47:12.137Z,2.27
2018-08-06T22:49:40.301Z,1.93
2018-08-06T22:52:08.317Z,1.93
2018-08-06T22:54:36.378Z,1.87
2018-08-06T22:57:04.421Z,2.00
2018-08-06T22:59:32.458Z,2.00
2018-08-06T23:02:00.590Z,1.90
2018-08-06T23:04:28.609Z,1.87
2018-08-06T23:06:56.606Z,1.80
2018-08-06T23:09:24.630Z,2.00
2018-08-06T23:11:52.679Z,1.80
2018-08-06T23:14:20.706Z,2.17
2018-08-06T23:16:48.731Z,2.00
2018-08-06T23:19:16.813Z,1.70
2018-08-06T23:21:44.894Z,1.93
2018-08-06T23:24:12.922Z,2.27
2018-08-06T23:26:41.185Z,1.97
2018-08-06T23:29:09.434Z,2.40
2018-08-06T23:31:37.527Z,1.90
2018-08-06T23:34:05.766Z,1.70
2018-08-06T23:36:33.796Z,2.20
2018-08-06T23:39:01.831Z,2.17
2018-08-06T23:41:29.878Z,1.83
2018-08-06T23:43:57.946Z,2.40
2018-08-06T23:46:25.962Z,2.30
2018-08-06T23:48:53.993Z,2.83
2018-08-06T23:51:22.025Z,2.73
2018-08-06T23:53:50.046Z,2.50
2018-08-06T23:56:18.090Z,2.67
2018-08-06T23:58:46.215Z,2.47
